Aeroporto :
LOGIN :

Iscrizione | Disclaimer

   EN    FR    IT 

 










Sommario :    VFR   VFR Marginale   IFR   IFR Intensivo   IFR Molto Intensivo
Visibilità : 
Base nubi : 
>= 8 km
>= 3000ft
5 / 8 km
1000 / 3000 ft
1500m / 5 km
500 / 1000 ft
800 / 1500m
200 / 500 ft
< 800m
< 200 ft
Simboli :   Temporali  Nebbia  Neve Forte  Precipitazioni Forti  Vento > 20 kt
SIGMETs :   Varie  Temporali  Ghiacco  Turbolenza  Onda orograficha  Ceneri Vulcaniche







- Altitudine del aeroporto : 1090 ft
- Codice IATA : CFE
- Carte del aeroporto


LFLC - Clermont-Ferrand Auvergne

ULTIMO METAR :
  • 222130Z AUTO 10002KT CAVOK 17/08 Q1024 NOSIG

METARs OBSOLETI :
  • 222100Z AUTO 28003KT CAVOK 17/08 Q1024 NOSIG
  • 222030Z AUTO 25005KT CAVOK 19/08 Q1023 NOSIG
  • 222000Z AUTO 24003KT 180V280 CAVOK 20/08 Q1023 NOSIG
  • 221930Z AUTO VRB01KT CAVOK 19/09 Q1023 NOSIG
  • 221900Z AUTO 00000KT 7000 1300 R26/P2400 R08/P2400 NSC 22/07 Q1023 NOSIG

TAF TAF LFLC
Valido dal 22 a 21 ore il 23 a 21 ore UTC


222000Z 2221/2321 VRB03KT CAVOK
ATIS : +33 4 73 62 74 38
Nessun NOTAM noto per questo aeroporto.



MetMap, La meteo Aeronautica in un colpo d'occhio ! - Copyright ORBIFLY Dicembre 2007 - Disclaimer

ORBIFLY MET'MAP TEAM :

Programmazione e sviluppo : Alexandra Zaïnal
Concezione e sviluppo : Baudouin d'Aumeries
Co-Programmazione e sviluppo : Marc-Olivier Méhu
Supporto tecnico e logistico : Manuel Goepfert
Aiuto per la traduzione : Arnaldo La Scala

Contatto : metmap@orbifly.com




FONTI E CREDITI :

   NOAA